This is the latest recevied weather packets stored in our database for station/object W7OWO-1. If no packets are shown the sender has not sent any weather packets the latest 10 day(s).
| Time | Temp. | Humidity | Pressure | Rain* | Wind** | Luminosity | Snow |
|---|---|---|---|---|---|---|---|
| 1777775223 | 18.89° C | 78% | 1012.3 hPa | 0 mm | - | - | - |
| 1777774143 | 18.89° C | 77% | 1012.5 hPa | 0 mm | - | - | - |
| 1777771623 | 20° C | 74% | 1011.6 hPa | 0 mm | - | - | - |
| 1777769643 | 20° C | 75% | 1011.5 hPa | 0 mm | - | - | - |
| 1777766943 | 20° C | 75% | 1011.2 hPa | 0 mm | - | - | - |
| 1777766403 | 20° C | 74% | 1011.3 hPa | 0 mm | - | - | - |
| 1777762803 | 21.11° C | 69% | 1012.1 hPa | 0 mm | - | - | - |
| 1777760823 | 21.11° C | 69% | 1012.5 hPa | 0 mm | - | - | - |
| 1777760283 | 20.56° C | 69% | 1012.6 hPa | 0 mm | - | - | - |
| 1777759203 | 20° C | 70% | 1012.9 hPa | 0 mm | - | - | - |
| 1777756683 | 18.33° C | 76% | 1013.4 hPa | 0 mm | - | - | - |
| 1777755603 | 18.33° C | 75% | 1013.7 hPa | 0 mm | - | - | - |
| 1777754163 | 17.78° C | 77% | 1014 hPa | 0 mm | - | - | - |
| 1777752003 | 16.67° C | 79% | 1014.7 hPa | 0 mm | - | - | - |
| 1777751643 | 16.67° C | 79% | 1014.7 hPa | 0 mm | - | - | - |
| 1777751103 | 16.67° C | 79% | 1014.9 hPa | 0 mm | - | - | - |
| 1777748043 | 13.33° C | 89% | 1015.5 hPa | 0 mm | - | - | - |
| 1777746423 | 13.33° C | 85% | 1015.1 hPa | 0 mm | - | - | - |
| 1777744443 | 14.44° C | 86% | 1015.5 hPa | 0 mm | - | - | - |
| 1777740303 | 12.22° C | 95% | 1016.1 hPa | 0.25 mm | - | - | - |
| 1777739763 | 11.67° C | 94% | 1016.2 hPa | 0.25 mm | - | - | - |
| 1777739223 | 11.67° C | 96% | 1016.1 hPa | 0.25 mm | - | - | - |
| 1777735623 | 10.56° C | 100% | 1016.2 hPa | 1.02 mm | - | - | - |
| 1777735083 | 10° C | 100% | 1016.3 hPa | 2.03 mm | - | - | - |
| 1777734003 | 9.44° C | 100% | 1016.2 hPa | 2.03 mm | - | - | - |
* Rain latest hour (hover to see other rain measurements)
** Current wind speed in m/s (hover to see current wind gust speed)